x

Sabine Pass, Tx (srst2) Weather Station

9:00am - Thu 25th May 2017 All times are CDT. -5 hours from GMT.

  • Wind
    15mph, 18mph gusts
  • Air Temp 78°f
  • Sea Pressure 1011.4mb
  • Sabine Pass, Tx
  • Sabine Pass, Tx

More Historic Weather Station data

Upgrade to MSW Pro to gain access to the past 30 days of data for over 8000 Wavebouys and Weather Stations around the globe.

Join Pro

Comparision Forecast

View Surf forecast
   
Thu 05/25 9:00am 15 18 mph 1011.4mb 78f
8:00am 13 16 mph 1010.5mb 76f
7:00am 11 15 mph 1010.2mb 75f
6:00am 10 13 mph 1009.5mb 75f
5:00am 14 16 mph 1009.1mb 75f
4:00am 10 13 mph 1008.9mb 75f
3:00am 9 11 mph 1008.5mb 74f
2:00am 7 8 mph 1008.7mb 72f
1:00am 7 7 mph 1008.9mb 71f
12:00am 3 3 mph 1009.2mb 69f
Wed 05/24 11:00pm 1 2 mph 1009mb 71f
10:00pm 1 2 mph 1008.5mb 70f
9:00pm 5 5 mph 1007.9mb 71f
8:00pm 6 6 mph 1007.5mb 73f
7:00pm 9 11 mph 1007.2mb 77f
6:00pm 13 16 mph 1007.1mb 79f
5:00pm 17 23 mph 1007.5mb 79f
4:00pm 13 16 mph 1007.9mb 79f
3:00pm 16 22 mph 1008.5mb 78f
2:00pm 18 28 mph 1009.1mb 77f
1:00pm 20 24 mph 1009.7mb 77f
12:00pm 14 20 mph 1010.2mb 75f
11:00am 13 15 mph 1010.6mb 71f
10:00am 13 15 mph 1010.5mb 69f
9:00am 11 14 mph 1010.3mb 64f
8:00am 10 13 mph 1010.3mb 62f
7:00am 8 13 mph 1010.2mb 59f
6:00am 6 7 mph 1008.8mb 59f
5:00am 9 13 mph 1009.3mb 60f
4:00am 10 14 mph 1009.3mb 61f
3:00am 11 14 mph 1009.6mb 63f
2:00am 14 17 mph 1010.3mb 65f
1:00am 13 15 mph 1010.7mb 66f
12:00am 9 13 mph 1010.9mb 67f
Tue 05/23 11:00pm 8 13 mph 1010.7mb 68f
10:00pm 6 7 mph 1010.2mb 73f
9:00pm 6 6 mph 1007.4mb 74f
8:00pm 6 6 mph 1007.3mb 75f
7:00pm 2 3 mph 1007.6mb 78f
6:00pm 7 10 mph 1007.7mb 79f
5:00pm 8 10 mph 1008.1mb 79f
4:00pm 8 11 mph 1008.8mb 78f
3:00pm 6 8 mph 1009.3mb 77f
2:00pm 6 8 mph 1010.2mb 75f
1:00pm 6 9 mph 1010.9mb 74f
12:00pm 8 13 mph 1011.3mb 71f
11:00am 8 10 mph 1010.8mb 70f
10:00am 9 13 mph 1010.5mb 69f
9:00am 10 13 mph 1010.8mb 67f
8:00am 10 13 mph 1010.3mb 67f
7:00am 13 17 mph 1010.6mb 66f
6:00am 8 10 mph 1010.7mb 66f
5:00am 10 13 mph 1010.5mb 67f
4:00am 10 13 mph 1010.5mb 67f
3:00am 10 11 mph 1010.6mb 68f
2:00am 7 8 mph 1010.7mb 69f
1:00am 6 7 mph 1010.9mb 68f
12:00am 7 9 mph 1011.8mb 69f
Mon 05/22 11:00pm 6 7 mph 1011.7mb 69f
10:00pm 9 11 mph 1011.6mb 70f
9:00pm 6 7 mph 1011mb 71f
8:00pm 6 7 mph 1010.8mb 72f
7:00pm 7 8 mph 1010.6mb 72f
6:00pm 5 7 mph 1011.7mb 70f
5:00pm 8 10 mph 1011.6mb 77f
4:00pm 11 14 mph 1012.1mb 75f
3:00pm 11 16 mph 1012.2mb 76f
2:00pm 11 15 mph 1013.4mb 77f
1:00pm 17 22 mph 1014.5mb 76f
12:00pm 16 20 mph 1014.9mb 76f
11:00am 17 23 mph 1015.8mb 76f
10:00am 18 21 mph 1015.5mb 76f
9:00am 15 20 mph 1016.2mb 75f
8:00am 16 20 mph 1016mb 75f
7:00am 15 18 mph 1015.2mb 76f
6:00am 16 21 mph 1015.3mb 76f
5:00am 25 31 mph 1015.6mb 75f
4:00am 21 26 mph 1015.7mb 75f
3:00am 28 36 mph 1016.3mb 74f
2:00am 21 26 mph 1017.4mb 74f
1:00am 10 15 mph 1017mb 73f
12:00am 8 10 mph 1017.5mb 72f
Sun 05/21 11:00pm 8 11 mph 1017.5mb 73f
10:00pm 10 13 mph 1018.3mb 73f
9:00pm 8 10 mph 1017.3mb 73f
8:00pm 11 16 mph 1016.4mb 74f
7:00pm 7 11 mph 1015.3mb 75f
6:00pm 9 11 mph 1016.4mb 74f
5:00pm 15 17 mph 1016.8mb 74f
4:00pm 6 7 mph 1016mb 81f